Time;durP1;ratioP1;P1;durP2;ratioP2;P2;SDS_P1;SDS_P2;PMS_P1;PMS_P2;Temp;Humidity;BMP_temperature;BMP_pressure;BME280_temperature;BME280_humidity;BME280_pressure;Samples;Min_cycle;Max_cycle;Signal;HPM_P1;HPM_P2
2022/01/25 00:25:07;;;;;;;51.33;36.57;;;12.50;91.30;;;;;;5207962;28;20049;-31
2022/01/25 00:27:43;;;;;;;50.23;34.73;;;12.60;91.40;;;;;;5207821;28;20077;-31
2022/01/25 00:32:54;;;;;;;51.20;34.40;;;12.50;91.30;;;;;;5208150;28;20080;-39
2022/01/25 00:35:25;;;;;;;47.10;32.63;;;12.60;91.30;;;;;;5208077;28;20422;-32
2022/01/25 00:37:56;;;;;;;44.93;31.30;;;12.60;91.40;;;;;;5207759;28;20057;-29
2022/01/25 00:40:27;;;;;;;46.00;31.43;;;12.50;91.30;;;;;;5206639;28;20502;-31
2022/01/25 00:42:58;;;;;;;46.43;34.23;;;12.50;91.30;;;;;;5207550;28;20506;-25
2022/01/25 00:45:29;;;;;;;43.90;32.13;;;12.50;91.30;;;;;;5207605;28;20041;-38
2022/01/25 00:48:03;;;;;;;46.03;31.80;;;12.50;91.30;;;;;;5207501;28;20380;-38
2022/01/25 00:50:40;;;;;;;48.27;32.57;;;12.50;91.60;;;;;;5207610;28;20511;-30
2022/01/25 00:56:17;;;;;;;45.97;31.03;;;12.50;91.30;;;;;;5226519;28;20103;-37
2022/01/25 00:58:49;;;;;;;44.43;31.43;;;12.50;91.30;;;;;;5226039;28;20056;-34
2022/01/25 01:01:20;;;;;;;45.73;33.27;;;12.50;91.40;;;;;;5209202;28;20076;-36
2022/01/25 01:03:51;;;;;;;47.07;31.73;;;12.50;91.40;;;;;;5209544;28;20450;-36
2022/01/25 01:06:22;;;;;;;42.67;30.20;;;12.50;91.40;;;;;;5225860;28;20049;-31
2022/01/25 01:08:54;;;;;;;43.67;29.20;;;12.50;91.40;;;;;;5225931;28;20051;-33
2022/01/25 01:11:33;;;;;;;47.20;31.77;;;12.50;91.40;;;;;;5209206;28;20049;-31
2022/01/25 01:14:18;;;;;;;45.77;30.83;;;12.50;91.40;;;;;;5225883;28;20514;-30
2022/01/25 01:42:15;;;;;;;33.43;25.10;;;12.50;91.40;;;;;;5225644;28;20059;-35
2022/01/25 01:45:08;;;;;;;;;;;12.40;91.40;;;;;;5212567;28;20099;-29
2022/01/25 01:47:49;;;;;;;32.58;23.67;;;12.50;91.40;;;;;;5225254;28;19927;-31
2022/01/25 01:50:29;;;;;;;33.70;23.77;;;12.50;91.40;;;;;;5209760;28;20183;-30
2022/01/25 01:53:00;;;;;;;30.97;22.43;;;12.40;91.40;;;;;;5228646;28;20498;-31
2022/01/25 01:55:31;;;;;;;37.80;25.83;;;12.40;91.40;;;;;;5212813;28;20052;-30
2022/01/25 01:58:04;;;;;;;29.60;22.23;;;12.40;91.40;;;;;;5229204;28;20044;-34
2022/01/25 02:00:38;;;;;;;27.77;19.75;;;12.40;91.40;;;;;;5212625;28;20072;-31
2022/01/25 02:03:10;;;;;;;24.53;18.37;;;12.40;91.40;;;;;;5229217;28;20049;-38
2022/01/25 02:05:41;;;;;;;24.30;18.57;;;12.40;91.40;;;;;;5229234;28;20044;-33
2022/01/25 02:08:12;;;;;;;22.37;17.33;;;12.50;91.70;;;;;;5213004;28;20045;-35
2022/01/25 02:11:02;;;;;;;22.47;16.00;;;12.40;91.40;;;;;;5212723;28;20147;-29
2022/01/25 02:13:33;;;;;;;22.70;17.27;;;12.50;91.40;;;;;;5216890;28;20057;-28
2022/01/25 02:16:07;;;;;;;21.73;16.07;;;12.50;91.40;;;;;;5210718;28;20495;-32
2022/01/25 02:24:18;;;;;;;19.53;15.17;;;12.50;91.30;;;;;;5210724;28;20048;-30
2022/01/25 02:26:51;;;;;;;20.63;15.93;;;12.50;91.30;;;;;;5209143;28;20051;-37
2022/01/25 02:29:22;;;;;;;21.75;16.15;;;12.50;91.30;;;;;;5210309;28;20050;-31
2022/01/25 02:31:53;;;;;;;19.17;14.53;;;12.50;91.30;;;;;;5210159;28;20045;-34
2022/01/25 02:34:24;;;;;;;23.93;16.90;;;12.50;91.30;;;;;;5209125;28;20068;-31
2022/01/25 02:37:03;;;;;;;21.67;16.93;;;12.50;91.30;;;;;;5210239;28;20045;-27
2022/01/25 02:39:37;;;;;;;22.80;17.27;;;12.50;91.30;;;;;;5210203;28;20060;-29
2022/01/25 02:42:13;;;;;;;26.20;19.07;;;12.50;91.30;;;;;;5209923;28;20053;-36
2022/01/25 02:44:45;;;;;;;22.90;17.37;;;12.50;91.20;;;;;;5209361;28;20400;-32
2022/01/25 02:50:07;;;;;;;24.80;18.40;;;12.50;91.10;;;;;;5209035;28;20087;-32
2022/01/25 02:52:38;;;;;;;21.13;15.87;;;12.50;91.00;;;;;;5208763;28;20148;-34
2022/01/25 02:55:09;;;;;;;22.57;17.90;;;12.50;91.00;;;;;;5209884;28;20069;-35
2022/01/25 02:57:40;;;;;;;19.00;15.20;;;12.50;90.90;;;;;;5209845;28;20491;-30
2022/01/25 03:00:12;;;;;;;17.37;15.27;;;12.50;90.90;;;;;;5209623;28;20095;-35
2022/01/25 03:02:42;;;;;;;20.77;16.47;;;12.50;90.80;;;;;;5208915;28;20068;-31
2022/01/25 03:05:14;;;;;;;21.23;16.37;;;12.50;90.80;;;;;;5208919;28;20111;-36
2022/01/25 03:07:45;;;;;;;18.93;16.90;;;12.50;90.80;;;;;;5208970;28;20500;-33
2022/01/25 03:10:16;;;;;;;;;;;11.80;91.30;;;;;;5208853;28;20554;-28
2022/01/25 03:12:52;;;;;;;21.23;17.00;;;10.70;92.90;;;;;;5207728;28;20012;-27
2022/01/25 03:15:30;;;;;;;19.77;17.03;;;10.00;93.90;;;;;;5208748;28;20103;-32
2022/01/25 03:18:07;;;;;;;17.60;15.13;;;9.60;94.60;;;;;;5206647;28;20083;-36
2022/01/25 03:20:59;;;;;;;17.57;14.97;;;9.40;95.20;;;;;;5204977;28;20402;-31
2022/01/25 03:23:32;;;;;;;15.80;13.63;;;9.30;95.40;;;;;;5206858;28;20037;-36
2022/01/25 03:26:03;;;;;;;17.38;15.20;;;9.20;95.60;;;;;;5207810;28;20045;-31
2022/01/25 03:28:33;;;;;;;17.60;14.70;;;9.10;95.70;;;;;;5208409;28;20106;-35
2022/01/25 03:31:05;;;;;;;14.17;12.63;;;9.10;96.00;;;;;;5209049;28;20076;-31
2022/01/25 03:33:36;;;;;;;15.00;11.13;;;9.00;96.30;;;;;;5208977;28;20495;-35
2022/01/25 03:36:09;;;;;;;13.50;11.63;;;9.00;96.30;;;;;;5207967;28;20041;-36
2022/01/25 03:38:41;;;;;;;14.37;11.37;;;9.00;96.40;;;;;;5208087;28;20487;-31
2022/01/25 03:41:13;;;;;;;14.90;12.40;;;9.00;96.30;;;;;;5208978;28;20068;-32
2022/01/25 03:43:50;;;;;;;14.37;11.47;;;8.90;96.30;;;;;;5208898;28;20115;-32
2022/01/25 03:51:49;;;;;;;14.00;12.27;;;8.80;96.60;;;;;;5208835;28;20049;-29
2022/01/25 03:54:20;;;;;;;15.83;13.93;;;8.80;96.60;;;;;;5207485;28;20480;-32
2022/01/25 03:56:51;;;;;;;15.37;12.70;;;8.80;96.50;;;;;;5207382;28;20100;-29
2022/01/25 03:59:22;;;;;;;17.13;14.20;;;8.80;96.70;;;;;;5208302;28;20071;-32
2022/01/25 04:01:53;;;;;;;16.90;15.03;;;8.80;96.70;;;;;;5207954;28;20042;-38
2022/01/25 04:04:26;;;;;;;16.93;14.37;;;8.80;96.80;;;;;;5207891;28;20060;-34
2022/01/25 04:06:57;;;;;;;16.20;13.95;;;8.80;96.80;;;;;;5205711;28;20049;-31
2022/01/25 04:09:28;;;;;;;16.73;14.10;;;8.70;96.80;;;;;;5205185;28;20132;-37
2022/01/25 04:12:01;;;;;;;16.70;14.47;;;8.70;96.80;;;;;;5208041;28;20056;-35
2022/01/25 04:14:32;;;;;;;16.13;13.55;;;8.70;96.90;;;;;;5207610;28;20132;-36
2022/01/25 04:17:07;;;;;;;15.83;13.70;;;8.70;96.80;;;;;;5208125;28;20053;-28
2022/01/25 04:19:44;;;;;;;15.03;12.53;;;8.70;96.90;;;;;;5208325;28;20503;-35
2022/01/25 04:28:31;;;;;;;18.70;14.20;;;8.70;97.10;;;;;;5207997;28;20435;-34
2022/01/25 04:31:02;;;;;;;16.53;13.20;;;8.60;97.10;;;;;;5206720;28;20041;-33
2022/01/25 04:33:44;;;;;;;16.20;13.23;;;8.60;97.40;;;;;;5207310;28;20403;-32
2022/01/25 04:48:47;;;;;;;15.77;14.03;;;8.60;97.40;;;;;;5207994;28;20491;-32
2022/01/25 04:56:20;;;;;;;15.57;13.40;;;9.50;96.40;;;;;;5204961;28;20078;-30
2022/01/25 04:59:18;;;;;;;17.30;13.43;;;9.50;96.30;;;;;;5205248;28;20061;-32
2022/01/25 05:01:52;;;;;;;18.80;15.03;;;9.50;96.30;;;;;;5205374;28;20093;-32
2022/01/25 05:04:29;;;;;;;17.27;14.47;;;9.50;96.40;;;;;;5204845;28;20124;-33
2022/01/25 05:07:12;;;;;;;15.37;13.50;;;9.40;96.50;;;;;;5205360;28;20050;-33
2022/01/25 05:09:45;;;;;;;16.48;13.18;;;9.70;96.40;;;;;;5205418;28;20053;-31
2022/01/25 05:12:16;;;;;;;15.75;13.23;;;10.20;95.70;;;;;;5189340;28;20182;-38
2022/01/25 05:14:58;;;;;;;14.27;12.77;;;10.70;95.00;;;;;;5187932;28;20049;-29
2022/01/25 05:17:39;;;;;;;15.83;13.90;;;10.30;94.80;;;;;;5205055;28;20041;-28
2022/01/25 05:23:00;;;;;;;15.17;12.50;;;9.60;96.10;;;;;;5204343;28;20503;-29
2022/01/25 05:25:31;;;;;;;16.00;13.20;;;9.50;96.30;;;;;;5204897;28;20116;-29
2022/01/25 05:28:02;;;;;;;;;;;9.40;96.40;;;;;;5208822;28;20056;-29
2022/01/25 05:30:33;;;;;;;16.07;11.97;;;9.30;96.70;;;;;;5209397;28;19921;-30
2022/01/25 05:33:04;;;;;;;15.13;11.77;;;9.70;96.30;;;;;;5210024;28;20448;-30
2022/01/25 05:35:35;;;;;;;13.13;11.17;;;10.10;95.80;;;;;;5211213;28;20049;-30
2022/01/25 05:38:06;;;;;;;15.53;12.10;;;10.60;95.20;;;;;;5211601;28;20049;-31
2022/01/25 05:40:46;;;;;;;13.30;10.80;;;11.00;94.60;;;;;;5193662;28;20068;-31
2022/01/25 05:48:26;;;;;;;18.40;15.53;;;11.90;93.10;;;;;;5211391;28;20396;-30
2022/01/25 05:50:57;;;;;;;23.13;20.83;;;12.20;92.70;;;;;;5211531;28;20128;-35
2022/01/25 05:53:29;;;;;;;42.63;38.53;;;12.40;92.20;;;;;;5211155;28;20443;-29
2022/01/25 05:56:00;;;;;;;21.47;18.97;;;12.60;91.90;;;;;;5193206;28;20065;-32
2022/01/25 05:58:31;;;;;;;15.20;13.17;;;12.70;91.70;;;;;;5193108;28;20068;-35
2022/01/25 06:01:01;;;;;;;20.20;17.57;;;12.80;91.50;;;;;;5211020;28;20049;-35
2022/01/25 06:03:33;;;;;;;16.07;14.33;;;12.90;91.40;;;;;;5210651;28;20081;-28
2022/01/25 06:06:03;;;;;;;16.20;14.33;;;12.90;91.30;;;;;;5210426;28;20076;-30
2022/01/25 06:08:35;;;;;;;14.87;12.73;;;12.90;91.20;;;;;;5210910;28;20435;-29
2022/01/25 06:11:07;;;;;;;15.77;13.47;;;12.90;91.10;;;;;;5210624;28;20049;-29
2022/01/25 06:13:38;;;;;;;14.45;12.95;;;13.00;91.10;;;;;;5210600;28;20049;-27
2022/01/25 06:16:09;;;;;;;14.17;12.60;;;13.00;91.00;;;;;;5210569;28;20068;-29
2022/01/25 06:18:40;;;;;;;15.57;12.90;;;13.00;91.00;;;;;;5210638;28;20495;-37
2022/01/25 06:21:11;;;;;;;15.97;12.87;;;13.00;91.00;;;;;;5210655;28;20045;-33
2022/01/25 06:23:43;;;;;;;18.53;15.90;;;13.00;90.90;;;;;;5210599;28;20502;-29
2022/01/25 06:26:14;;;;;;;16.50;13.47;;;13.10;90.90;;;;;;5210334;28;20529;-29
2022/01/25 06:28:45;;;;;;;14.00;11.77;;;13.00;90.90;;;;;;5209676;28;20491;-29
2022/01/25 06:31:19;;;;;;;16.00;13.77;;;13.00;90.90;;;;;;5210097;28;20052;-37
2022/01/25 06:34:19;;;;;;;18.30;15.80;;;13.00;90.90;;;;;;5210196;28;20571;-43
2022/01/25 06:36:53;;;;;;;17.27;13.70;;;13.00;90.90;;;;;;5210161;28;20041;-34
2022/01/25 06:39:30;;;;;;;20.13;17.93;;;13.00;90.80;;;;;;5210134;28;20049;-29
2022/01/25 06:42:09;;;;;;;17.50;14.97;;;13.00;90.90;;;;;;5153993;28;20072;-30
2022/01/25 06:44:42;;;;;;;98.13;63.57;;;13.00;90.90;;;;;;5200963;28;20037;-31
2022/01/25 06:47:13;;;;;;;70.00;55.23;;;13.00;90.90;;;;;;5203987;28;20034;-37
2022/01/25 06:49:44;;;;;;;59.40;51.37;;;13.00;91.20;;;;;;5210062;28;20069;-30
2022/01/25 06:52:16;;;;;;;55.07;46.10;;;13.10;91.00;;;;;;5209995;28;20041;-37
2022/01/25 06:54:47;;;;;;;73.60;57.33;;;13.10;90.90;;;;;;5210078;28;20051;-28
2022/01/25 06:57:18;;;;;;;74.27;56.97;;;13.10;90.80;;;;;;5209804;28;20403;-28
2022/01/25 06:59:50;;;;;;;134.77;89.23;;;13.20;90.80;;;;;;5209729;28;20037;-37
2022/01/25 07:02:21;;;;;;;78.33;52.00;;;13.20;90.70;;;;;;5209605;28;20045;-35
2022/01/25 07:04:56;;;;;;;25.53;17.87;;;13.20;90.70;;;;;;5209559;28;20051;-31
2022/01/25 07:07:27;;;;;;;26.60;20.10;;;13.20;90.60;;;;;;5209900;28;20080;-33
2022/01/25 07:09:58;;;;;;;23.47;17.77;;;13.20;90.60;;;;;;5208099;28;20050;-33
2022/01/25 07:12:29;;;;;;;26.50;19.93;;;13.30;90.70;;;;;;5208233;28;20047;-29
2022/01/25 07:15:00;;;;;;;25.67;18.67;;;13.30;90.70;;;;;;5208231;28;20072;-30
2022/01/25 07:17:31;;;;;;;22.10;16.60;;;13.30;90.70;;;;;;5209552;28;20128;-30
2022/01/25 07:20:05;;;;;;;21.60;16.40;;;13.20;90.70;;;;;;5208154;28;20053;-29
2022/01/25 07:22:36;;;;;;;27.92;19.98;;;13.20;90.70;;;;;;5209635;28;20121;-28
2022/01/25 07:25:09;;;;;;;50.60;45.20;;;13.20;90.80;;;;;;5207346;28;20509;-35
2022/01/25 07:27:40;;;;;;;46.00;38.67;;;13.20;90.80;;;;;;5206817;28;20088;-34
2022/01/25 07:30:11;;;;;;;55.77;32.90;;;13.20;90.90;;;;;;5206763;28;20136;-31
2022/01/25 07:32:42;;;;;;;28.63;19.47;;;13.20;90.90;;;;;;5190529;28;20467;-28
2022/01/25 07:35:13;;;;;;;22.07;17.57;;;13.20;90.90;;;;;;5206513;28;20049;-30
2022/01/25 07:37:44;;;;;;;22.67;17.80;;;13.10;90.90;;;;;;5173968;28;20152;-37
2022/01/25 07:40:16;;;;;;;25.47;19.33;;;13.10;90.90;;;;;;5203252;28;20415;-39
2022/01/25 07:42:48;;;;;;;26.57;19.73;;;13.10;91.00;;;;;;5204369;28;20418;-33
2022/01/25 07:45:20;;;;;;;28.67;21.53;;;13.10;91.10;;;;;;5203971;28;20600;-34
2022/01/25 07:47:51;;;;;;;29.57;21.40;;;13.10;91.10;;;;;;5204221;28;20111;-34
2022/01/25 07:50:23;;;;;;;28.07;22.50;;;13.20;91.10;;;;;;5203080;28;20244;-29
2022/01/25 07:52:54;;;;;;;26.00;19.77;;;13.20;91.10;;;;;;5204191;28;20577;-32
2022/01/25 07:55:34;;;;;;;29.50;21.90;;;13.20;91.10;;;;;;5204567;28;20053;-35
2022/01/25 07:58:05;;;;;;;29.13;20.70;;;13.10;91.00;;;;;;5188820;28;20053;-30
2022/01/25 08:00:36;;;;;;;27.77;21.13;;;13.20;91.10;;;;;;5202796;28;20045;-31
2022/01/25 08:03:07;;;;;;;26.97;19.90;;;13.20;91.10;;;;;;5186075;28;20048;-29
2022/01/25 08:05:38;;;;;;;29.30;20.93;;;13.20;91.10;;;;;;5187069;28;20092;-32
2022/01/25 08:08:09;;;;;;;23.03;18.50;;;13.20;91.10;;;;;;5192357;28;20046;-31
2022/01/25 08:10:40;;;;;;;22.23;18.30;;;13.20;91.10;;;;;;5184623;28;20054;-30
2022/01/25 08:13:11;;;;;;;20.07;16.60;;;13.20;91.20;;;;;;5184917;28;20439;-30
2022/01/25 08:15:42;;;;;;;18.47;15.60;;;13.20;91.20;;;;;;5185338;28;20411;-32
2022/01/25 08:18:13;;;;;;;20.50;17.70;;;13.10;91.20;;;;;;5157630;28;20053;-30
2022/01/25 08:20:45;;;;;;;19.63;16.97;;;13.20;91.30;;;;;;5191019;28;20549;-31
2022/01/25 08:23:16;;;;;;;22.00;18.47;;;13.20;91.30;;;;;;5185069;28;20042;-33
2022/01/25 08:25:47;;;;;;;19.27;16.57;;;13.20;91.30;;;;;;5185283;28;20042;-29
2022/01/25 08:28:18;;;;;;;21.40;17.20;;;13.20;91.30;;;;;;5198129;28;20034;-32
2022/01/25 08:30:49;;;;;;;19.70;16.03;;;13.20;91.30;;;;;;5205467;28;20045;-32
2022/01/25 08:33:20;;;;;;;20.67;16.80;;;13.20;91.40;;;;;;5205178;28;20053;-29
2022/01/25 08:35:51;;;;;;;19.80;16.33;;;13.20;91.50;;;;;;5205574;28;20060;-29
2022/01/25 08:38:23;;;;;;;18.87;15.57;;;13.10;91.40;;;;;;5205580;28;20049;-30
2022/01/25 08:40:54;;;;;;;17.30;14.23;;;13.10;91.50;;;;;;5205349;28;20670;-29
2022/01/25 08:43:25;;;;;;;18.30;15.13;;;13.20;91.40;;;;;;5186837;28;20050;-33
2022/01/25 08:45:56;;;;;;;18.27;14.70;;;13.20;91.50;;;;;;5184597;28;20116;-31
2022/01/25 08:48:27;;;;;;;18.57;14.00;;;13.20;91.50;;;;;;5184808;28;20050;-31
2022/01/25 08:50:58;;;;;;;17.53;14.43;;;13.20;91.50;;;;;;5185023;28;20124;-31
2022/01/25 08:53:29;;;;;;;17.70;14.57;;;13.20;91.60;;;;;;5184821;28;20124;-33
2022/01/25 08:56:05;;;;;;;30.73;22.63;;;13.20;91.60;;;;;;5184853;28;20045;-31
2022/01/25 08:58:36;;;;;;;25.50;18.97;;;13.20;91.80;;;;;;5183350;28;20061;-34
2022/01/25 09:01:07;;;;;;;21.03;15.67;;;13.20;91.70;;;;;;5184289;28;20142;-29
2022/01/25 09:03:38;;;;;;;17.03;14.93;;;13.20;91.60;;;;;;5182997;28;20141;-40
2022/01/25 09:06:09;;;;;;;17.03;14.80;;;13.20;91.70;;;;;;5184033;28;20538;-31
2022/01/25 09:08:40;;;;;;;17.27;14.27;;;13.20;91.70;;;;;;5184156;28;20046;-32
2022/01/25 09:11:11;;;;;;;17.43;13.93;;;13.20;91.70;;;;;;5184574;28;20080;-32
2022/01/25 09:13:42;;;;;;;18.90;14.63;;;13.20;91.70;;;;;;5184109;28;20495;-33
2022/01/25 09:16:13;;;;;;;20.63;15.40;;;13.20;91.70;;;;;;5183347;28;20069;-31
2022/01/25 09:18:44;;;;;;;17.70;14.87;;;13.20;91.70;;;;;;5198364;28;20060;-29
2022/01/25 09:21:15;;;;;;;19.20;14.40;;;13.20;91.80;;;;;;5184332;28;20434;-36
2022/01/25 09:23:46;;;;;;;17.53;14.13;;;13.20;91.80;;;;;;5184541;28;20041;-30
2022/01/25 09:26:17;;;;;;;21.27;16.70;;;13.10;91.70;;;;;;5184542;28;20057;-31
2022/01/25 09:28:50;;;;;;;21.10;16.90;;;13.10;91.80;;;;;;5184496;28;20122;-30
2022/01/25 09:31:22;;;;;;;15.70;13.45;;;13.10;91.80;;;;;;5190058;28;20045;-31
2022/01/25 09:33:53;;;;;;;18.93;14.87;;;13.10;91.90;;;;;;5191980;28;20530;-30
2022/01/25 09:36:24;;;;;;;20.37;16.37;;;13.10;91.80;;;;;;5184366;28;20110;-31
2022/01/25 09:38:55;;;;;;;16.53;13.37;;;13.10;91.90;;;;;;5184481;28;20117;-33
2022/01/25 09:41:29;;;;;;;19.00;14.60;;;13.00;91.90;;;;;;5197980;28;20046;-30
2022/01/25 09:44:00;;;;;;;19.83;14.60;;;13.00;91.90;;;;;;5192297;28;20049;-28
2022/01/25 09:46:31;;;;;;;19.67;15.63;;;13.00;92.00;;;;;;5189414;28;20073;-29
2022/01/25 09:49:02;;;;;;;17.93;15.40;;;13.00;92.00;;;;;;5182572;28;20054;-31
2022/01/25 09:51:34;;;;;;;18.27;14.50;;;13.00;92.00;;;;;;5198200;28;20049;-30
2022/01/25 09:54:07;;;;;;;24.07;18.43;;;13.00;92.00;;;;;;5184102;28;20042;-29
2022/01/25 09:56:39;;;;;;;24.93;18.90;;;13.00;92.10;;;;;;5182706;28;20069;-30
2022/01/25 09:59:10;;;;;;;23.27;17.20;;;13.00;92.00;;;;;;5182997;28;20472;-37
2022/01/25 10:01:41;;;;;;;21.47;17.17;;;13.00;92.10;;;;;;5184171;28;20168;-30
2022/01/25 10:04:33;;;;;;;23.73;18.63;;;13.00;92.10;;;;;;5184228;28;20062;-33
2022/01/25 10:07:08;;;;;;;22.43;17.60;;;13.00;92.20;;;;;;5184089;28;20042;-32
2022/01/25 10:09:40;;;;;;;22.03;18.17;;;13.00;92.20;;;;;;5183091;28;20069;-32
2022/01/25 10:12:23;;;;;;;23.37;18.10;;;12.90;92.20;;;;;;5184094;28;20151;-33
2022/01/25 10:15:00;;;;;;;22.70;17.70;;;12.90;92.20;;;;;;5198439;28;20498;-31
2022/01/25 10:17:32;;;;;;;21.00;17.77;;;12.90;92.20;;;;;;5190222;28;20435;-29
2022/01/25 10:20:10;;;;;;;21.80;17.70;;;12.90;92.30;;;;;;5198756;28;20068;-38
2022/01/25 10:22:47;;;;;;;22.57;17.60;;;12.90;92.30;;;;;;5207670;28;20144;-33
2022/01/25 10:25:40;;;;;;;24.23;18.80;;;12.90;92.30;;;;;;5205779;28;20057;-30
2022/01/25 10:28:12;;;;;;;21.20;17.70;;;12.90;92.30;;;;;;5205521;28;20072;-30
2022/01/25 10:30:51;;;;;;;23.40;18.40;;;12.90;92.40;;;;;;5203054;28;20429;-32
2022/01/25 10:33:47;;;;;;;23.30;18.33;;;12.80;92.40;;;;;;5205848;28;20120;-29
2022/01/25 10:36:22;;;;;;;22.70;18.93;;;12.80;92.50;;;;;;5190215;28;20082;-30
2022/01/25 10:38:54;;;;;;;22.33;17.70;;;12.80;92.70;;;;;;5205590;28;20073;-39
2022/01/25 10:41:27;;;;;;;21.37;17.67;;;12.80;92.80;;;;;;5219267;28;20057;-35
2022/01/25 10:43:58;;;;;;;20.23;17.15;;;12.80;93.00;;;;;;5205615;28;20072;-30
2022/01/25 10:46:30;;;;;;;22.60;18.90;;;12.90;93.10;;;;;;5205259;28;20049;-31
2022/01/25 10:49:03;;;;;;;23.33;19.27;;;13.00;93.00;;;;;;5191828;28;20539;-31
2022/01/25 10:51:42;;;;;;;24.02;18.58;;;13.10;92.90;;;;;;5205338;28;20081;-31
2022/01/25 10:54:24;;;;;;;26.67;20.13;;;13.10;92.80;;;;;;5205388;28;20107;-35
2022/01/25 10:56:59;;;;;;;27.00;20.43;;;13.20;92.80;;;;;;5205006;28;20076;-29
2022/01/25 10:59:36;;;;;;;26.40;19.90;;;13.20;92.80;;;;;;5205156;28;20108;-31
2022/01/25 11:02:07;;;;;;;27.60;20.33;;;13.20;92.90;;;;;;5204999;28;20064;-37
2022/01/25 11:04:39;;;;;;;30.03;20.53;;;13.20;92.90;;;;;;5205164;28;20077;-29
2022/01/25 11:07:13;;;;;;;26.67;19.93;;;13.20;92.90;;;;;;5172974;28;20606;-30
2022/01/25 11:09:47;;;;;;;23.33;18.15;;;13.20;93.00;;;;;;5204834;28;20053;-34
2022/01/25 11:12:19;;;;;;;23.83;17.77;;;13.20;93.00;;;;;;5204900;28;20063;-31
2022/01/25 11:14:53;;;;;;;25.02;18.05;;;13.20;93.00;;;;;;5204891;28;20060;-30
2022/01/25 11:17:28;;;;;;;22.48;16.75;;;13.20;93.00;;;;;;5204729;28;20053;-29
2022/01/25 11:20:00;;;;;;;24.90;18.57;;;13.20;93.00;;;;;;5195660;28;20085;-31
2022/01/25 11:22:31;;;;;;;26.73;20.00;;;13.20;93.10;;;;;;5183120;28;20044;-32
2022/01/25 11:25:06;;;;;;;26.03;19.13;;;13.20;93.10;;;;;;5185842;28;20443;-34
2022/01/25 11:27:37;;;;;;;24.47;18.00;;;13.20;93.20;;;;;;5186379;28;20488;-30
2022/01/25 11:30:11;;;;;;;28.83;21.23;;;13.20;93.30;;;;;;5185542;28;20050;-32
2022/01/25 11:32:49;;;;;;;25.60;18.70;;;13.10;93.30;;;;;;5182850;28;20074;-35
2022/01/25 11:35:23;;;;;;;24.13;17.97;;;13.20;93.40;;;;;;5185525;28;20046;-31
2022/01/25 11:37:54;;;;;;;30.08;23.98;;;13.10;93.50;;;;;;5185226;28;20045;-30
2022/01/25 11:40:34;;;;;;;20.60;18.03;;;13.10;93.50;;;;;;5191801;28;20049;-31
2022/01/25 11:43:08;;;;;;;18.37;15.77;;;13.10;93.60;;;;;;5191920;28;20050;-32
2022/01/25 11:45:41;;;;;;;26.70;21.00;;;13.10;93.70;;;;;;5185221;28;20042;-30
2022/01/25 11:48:46;;;;;;;29.25;22.08;;;13.10;94.10;;;;;;5186120;28;20038;-32
2022/01/25 11:56:01;;;;;;;19.37;13.33;;;13.10;94.00;;;;;;5183110;28;20069;-38
2022/01/25 11:58:41;;;;;;;18.20;12.77;;;13.10;94.10;;;;;;5179812;28;20065;-36
2022/01/25 12:01:28;;;;;;;22.53;15.13;;;13.10;94.10;;;;;;5177475;28;20575;-34
2022/01/25 12:04:16;;;;;;;20.40;13.97;;;13.00;94.00;;;;;;5190268;28;20084;-40
2022/01/25 12:06:59;;;;;;;21.97;15.77;;;13.00;94.00;;;;;;5169581;28;20141;-35
2022/01/25 12:10:04;;;;;;;19.77;14.87;;;13.00;94.10;;;;;;5163121;28;20371;-35
2022/01/25 12:13:13;;;;;;;21.27;16.50;;;13.00;94.10;;;;;;5167635;28;20054;-30
2022/01/25 12:16:21;;;;;;;20.80;15.47;;;13.00;94.20;;;;;;5165607;28;20046;-35
2022/01/25 12:19:08;;;;;;;21.70;18.40;;;13.10;94.20;;;;;;5124127;28;20601;-30
2022/01/25 12:21:54;;;;;;;23.03;20.60;;;13.10;94.20;;;;;;5127400;28;20061;-32
2022/01/25 12:25:02;;;;;;;38.20;31.37;;;13.10;94.20;;;;;;5122559;28;20505;-31
2022/01/25 12:27:56;;;;;;;25.20;19.13;;;13.20;94.20;;;;;;5122548;28;20103;-36
2022/01/25 12:30:40;;;;;;;26.30;23.40;;;13.20;94.10;;;;;;5135646;28;20599;-34
2022/01/25 12:33:44;;;;;;;71.87;64.40;;;13.20;94.10;;;;;;5127017;28;20089;-30
2022/01/25 12:36:17;;;;;;;48.93;43.70;;;13.20;94.10;;;;;;5123109;28;20047;-32
2022/01/25 12:38:56;;;;;;;57.93;51.80;;;13.20;94.10;;;;;;5117352;28;20109;-32
2022/01/25 12:41:33;;;;;;;41.60;34.83;;;13.20;94.10;;;;;;5136936;28;20626;-30
2022/01/25 12:44:11;;;;;;;102.53;73.90;;;13.20;94.10;;;;;;5131939;28;20065;-32
2022/01/25 12:46:44;;;;;;;55.03;41.93;;;13.20;94.10;;;;;;5126069;28;20540;-30
2022/01/25 12:49:25;;;;;;;67.87;53.83;;;13.20;94.00;;;;;;5148799;28;20058;-32
2022/01/25 12:52:06;;;;;;;39.87;33.23;;;13.10;94.10;;;;;;5182501;28;20041;-37
2022/01/25 12:54:43;;;;;;;31.07;27.47;;;13.10;94.10;;;;;;5178685;28;20101;-35
2022/01/25 12:57:19;;;;;;;32.77;24.43;;;13.20;94.40;;;;;;5183051;28;20077;-35
2022/01/25 12:59:50;;;;;;;60.27;37.00;;;13.10;94.10;;;;;;5178562;28;20056;-33
2022/01/25 13:02:21;;;;;;;67.93;41.53;;;13.20;94.10;;;;;;5186145;28;20041;-33
2022/01/25 13:04:52;;;;;;;85.23;51.50;;;13.10;94.20;;;;;;5191109;28;20061;-37
2022/01/25 13:07:23;;;;;;;65.77;44.67;;;13.10;94.20;;;;;;5184300;28;20053;-33
2022/01/25 13:09:55;;;;;;;41.70;30.17;;;13.20;94.20;;;;;;5191497;28;20058;-31
2022/01/25 13:12:34;;;;;;;24.07;18.23;;;13.20;94.20;;;;;;5182173;28;20053;-31
2022/01/25 13:15:27;;;;;;;15.50;12.97;;;13.10;94.20;;;;;;5182455;28;20073;-31
2022/01/25 13:17:56;;;;;;;22.60;18.53;;;13.10;94.30;;;;;;5182307;28;20133;-33
2022/01/25 13:20:43;;;;;;;15.77;12.63;;;13.10;94.30;;;;;;5179438;28;20148;-32
2022/01/25 13:23:16;;;;;;;12.77;10.40;;;13.10;94.30;;;;;;5155004;28;20085;-34
2022/01/25 13:26:10;;;;;;;14.68;13.13;;;13.10;94.30;;;;;;5183564;28;20484;-31
2022/01/25 13:31:22;;;;;;;10.93;9.80;;;13.00;94.40;;;;;;5186828;28;20080;-33
2022/01/25 13:33:54;;;;;;;12.83;9.43;;;13.00;94.40;;;;;;5186754;28;20057;-30
2022/01/25 13:36:28;;;;;;;15.47;10.40;;;13.00;94.50;;;;;;5186383;28;20073;-40
2022/01/25 13:39:03;;;;;;;15.07;11.03;;;13.00;94.50;;;;;;5187038;28;20046;-33
2022/01/25 13:41:52;;;;;;;12.57;8.47;;;13.00;94.50;;;;;;5186005;28;20128;-35
2022/01/25 13:47:13;;;;;;;8.57;7.07;;;13.00;94.50;;;;;;5185753;28;20046;-31
2022/01/25 13:49:44;;;;;;;8.50;6.57;;;13.00;94.50;;;;;;5204405;28;20411;-36
2022/01/25 13:52:20;;;;;;;20.93;17.40;;;13.00;94.50;;;;;;5190592;28;20083;-33
2022/01/25 13:54:51;;;;;;;22.23;18.37;;;13.00;94.60;;;;;;5190547;28;20063;-30
2022/01/25 13:57:22;;;;;;;24.53;18.83;;;13.00;94.60;;;;;;5209413;28;20037;-30
2022/01/25 13:59:55;;;;;;;16.43;14.53;;;13.00;94.50;;;;;;5209870;28;20053;-38
2022/01/25 14:02:26;;;;;;;20.25;15.85;;;13.00;94.60;;;;;;5211022;28;20073;-35
2022/01/25 14:05:00;;;;;;;33.70;30.20;;;13.00;94.60;;;;;;5210565;28;20065;-35
2022/01/25 14:07:39;;;;;;;34.37;30.77;;;13.00;94.60;;;;;;5209590;28;20080;-31
2022/01/25 14:10:21;;;;;;;46.73;39.83;;;13.00;94.60;;;;;;5210958;28;20095;-33
2022/01/25 14:21:56;;;;;;;51.73;40.00;;;13.10;94.40;;;;;;5210666;28;20045;-31
2022/01/25 14:24:32;;;;;;;59.23;43.97;;;13.10;94.40;;;;;;5207791;28;20472;-33
2022/01/25 14:27:27;;;;;;;88.07;59.20;;;13.10;94.40;;;;;;5201798;28;20056;-37
2022/01/25 14:30:07;;;;;;;71.03;47.33;;;13.10;94.50;;;;;;5207505;28;20060;-30
2022/01/25 14:32:38;;;;;;;68.07;44.80;;;13.10;94.50;;;;;;5204724;28;20045;-29
2022/01/25 14:35:11;;;;;;;82.50;56.43;;;13.10;94.50;;;;;;5207577;28;20042;-34
2022/01/25 14:37:49;;;;;;;52.63;39.78;;;13.20;94.50;;;;;;5207490;28;20430;-31
2022/01/25 14:40:20;;;;;;;106.60;64.37;;;13.20;94.50;;;;;;5207745;28;20045;-36
2022/01/25 14:42:51;;;;;;;91.67;58.23;;;13.20;94.40;;;;;;5193273;28;20813;-32
2022/01/25 14:45:23;;;;;;;99.73;56.20;;;13.20;94.40;;;;;;5187258;28;20034;-28
2022/01/25 14:47:54;;;;;;;142.57;80.20;;;13.20;94.40;;;;;;5187095;28;20050;-33
2022/01/25 14:50:32;;;;;;;117.00;74.00;;;13.20;94.40;;;;;;5186017;28;20096;-28
2022/01/25 14:53:10;;;;;;;156.37;106.43;;;13.10;94.40;;;;;;5187389;28;20050;-38
2022/01/25 14:55:41;;;;;;;69.83;48.93;;;13.10;94.40;;;;;;5187409;28;20057;-38
2022/01/25 15:00:47;;;;;;;57.70;41.83;;;13.10;94.40;;;;;;5184824;28;20096;-31
2022/01/25 15:03:19;;;;;;;163.63;104.57;;;13.20;94.40;;;;;;5186866;28;20381;-35
2022/01/25 15:05:53;;;;;;;117.37;91.20;;;13.20;94.40;;;;;;5186876;28;20077;-29
2022/01/25 15:08:24;;;;;;;163.60;121.10;;;13.20;94.30;;;;;;5186810;28;20518;-33